Time;durP1;ratioP1;P1;durP2;ratioP2;P2;SDS_P1;SDS_P2;PMS_P1;PMS_P2;Temp;Humidity;BMP_temperature;BMP_pressure;BME280_temperature;BME280_humidity;BME280_pressure;Samples;Min_cycle;Max_cycle;Signal;HPM_P1;HPM_P2
2022/03/09 00:01:16;;;;;;;10.27;5.63;;;1.70;99.90;;;;;;5103406;28;20047;-81
2022/03/09 00:03:42;;;;;;;10.38;5.78;;;1.70;99.90;;;;;;5103442;28;20122;-81
2022/03/09 00:06:07;;;;;;;11.38;6.05;;;1.70;99.90;;;;;;5103771;28;20059;-81
2022/03/09 00:08:33;;;;;;;8.98;4.97;;;1.70;99.90;;;;;;5102784;28;20096;-81
2022/03/09 00:10:59;;;;;;;11.32;5.53;;;1.70;99.90;;;;;;5120644;28;20046;-81
2022/03/09 00:13:24;;;;;;;10.30;5.70;;;1.70;99.90;;;;;;5103483;28;20060;-81
2022/03/09 00:15:50;;;;;;;10.70;5.97;;;2.20;99.90;;;;;;5103851;28;20035;-81
2022/03/09 00:18:16;;;;;;;9.73;5.63;;;1.60;99.90;;;;;;5144292;22;20115;-81
2022/03/09 00:20:42;;;;;;;10.02;5.47;;;1.60;99.90;;;;;;5128646;28;20091;-81
2022/03/09 00:23:07;;;;;;;10.52;5.20;;;1.60;99.90;;;;;;5111685;28;20027;-81
2022/03/09 00:25:33;;;;;;;11.77;5.70;;;1.60;99.90;;;;;;5111547;28;20084;-81
2022/03/09 00:27:59;;;;;;;9.98;5.20;;;1.50;99.90;;;;;;5112576;28;20059;-81
2022/03/09 00:30:25;;;;;;;12.20;6.07;;;1.50;99.90;;;;;;5110345;28;20031;-81
2022/03/09 00:32:50;;;;;;;11.80;6.03;;;1.40;99.90;;;;;;5111463;28;20039;-81
2022/03/09 00:35:16;;;;;;;12.65;6.25;;;1.50;99.90;;;;;;5115366;28;20035;-81
2022/03/09 00:37:42;;;;;;;11.05;5.97;;;1.40;99.90;;;;;;5115446;28;20035;-83
2022/03/09 00:40:08;;;;;;;9.65;6.15;;;1.40;99.90;;;;;;5114085;28;20039;-82
2022/03/09 00:42:36;;;;;;;11.07;5.90;;;1.40;99.90;;;;;;5131613;28;20039;-82
2022/03/09 00:45:02;;;;;;;11.70;5.63;;;1.40;99.90;;;;;;5108949;28;20035;-82
2022/03/09 00:47:27;;;;;;;10.45;5.57;;;1.60;99.90;;;;;;5090134;28;20048;-81
2022/03/09 00:49:53;;;;;;;10.68;5.90;;;1.40;99.90;;;;;;5107198;28;20114;-82
2022/03/09 00:52:19;;;;;;;11.38;5.57;;;1.40;99.90;;;;;;5124402;28;20478;-82
2022/03/09 00:54:45;;;;;;;13.05;6.03;;;1.40;99.90;;;;;;5106780;28;20040;-81
2022/03/09 00:57:10;;;;;;;10.10;6.07;;;1.40;99.90;;;;;;5124341;28;20039;-82
2022/03/09 00:59:36;;;;;;;11.27;6.43;;;1.40;99.90;;;;;;5107395;28;20035;-82
2022/03/09 01:02:02;;;;;;;10.27;6.03;;;1.30;99.90;;;;;;5124063;28;20126;-82
2022/03/09 01:04:27;;;;;;;12.25;6.32;;;1.30;99.90;;;;;;5106764;28;20028;-82
2022/03/09 01:06:53;;;;;;;9.50;5.70;;;1.60;99.90;;;;;;5124663;28;20040;-82
2022/03/09 01:09:18;;;;;;;11.32;6.05;;;1.30;99.90;;;;;;5124795;28;20094;-82
2022/03/09 01:11:44;;;;;;;10.02;5.70;;;1.20;99.90;;;;;;5107751;28;20393;-82
2022/03/09 01:14:10;;;;;;;12.38;6.13;;;1.20;99.90;;;;;;5156298;22;20065;-82
2022/03/09 01:16:35;;;;;;;11.88;6.47;;;1.20;99.90;;;;;;5106351;28;20043;-82
2022/03/09 01:19:01;;;;;;;10.48;6.05;;;1.60;99.90;;;;;;5106466;28;20090;-82
2022/03/09 01:21:27;;;;;;;11.60;6.32;;;1.20;99.90;;;;;;5113247;22;20047;-82
2022/03/09 01:23:52;;;;;;;10.77;6.03;;;1.10;99.90;;;;;;5106652;28;20132;-82
2022/03/09 01:26:18;;;;;;;12.27;6.53;;;1.10;99.90;;;;;;5122555;28;20437;-82
2022/03/09 01:31:14;;;;;;;14.63;6.80;;;1.00;99.90;;;;;;5122325;28;20100;-82
2022/03/09 01:33:40;;;;;;;14.52;7.18;;;0.90;99.90;;;;;;5088385;28;20043;-81
2022/03/09 01:36:06;;;;;;;12.23;6.45;;;0.90;99.90;;;;;;5088549;28;20043;-82
2022/03/09 01:38:31;;;;;;;12.23;6.75;;;0.90;99.90;;;;;;5089291;28;20039;-82
2022/03/09 01:40:57;;;;;;;11.75;6.60;;;0.90;99.90;;;;;;5089504;28;20039;-81
2022/03/09 01:43:23;;;;;;;13.95;6.90;;;0.90;99.90;;;;;;5106057;28;20040;-82
2022/03/09 01:45:48;;;;;;;13.02;7.00;;;0.80;99.90;;;;;;5105396;28;20398;-81
2022/03/09 01:48:14;;;;;;;15.50;7.15;;;0.80;99.90;;;;;;5088531;28;20493;-82
2022/03/09 01:50:40;;;;;;;12.70;6.60;;;0.80;99.90;;;;;;5104947;28;20035;-82
2022/03/09 01:53:06;;;;;;;12.30;6.47;;;0.90;99.90;;;;;;5088409;28;20035;-82
2022/03/09 01:55:32;;;;;;;12.13;6.38;;;0.70;99.90;;;;;;5088126;28;20100;-81
2022/03/09 01:57:57;;;;;;;11.95;6.80;;;0.70;99.90;;;;;;5104786;28;20036;-81
2022/03/09 02:00:23;;;;;;;13.07;6.93;;;1.10;99.90;;;;;;5088797;28;20035;-82
2022/03/09 02:02:49;;;;;;;12.82;6.93;;;0.70;99.90;;;;;;5088300;28;20127;-82
2022/03/09 02:05:15;;;;;;;15.40;7.50;;;0.70;99.90;;;;;;5088871;28;20128;-81
2022/03/09 02:10:25;;;;;;;14.25;7.10;;;0.70;99.90;;;;;;5104693;28;20075;-82
2022/03/09 02:12:51;;;;;;;14.60;7.40;;;0.70;99.90;;;;;;5087692;28;20051;-81
2022/03/09 02:15:17;;;;;;;13.93;7.25;;;0.70;99.90;;;;;;5087836;28;20047;-81
2022/03/09 02:17:42;;;;;;;12.88;7.43;;;0.70;99.90;;;;;;5087358;28;20031;-81
2022/03/09 02:20:08;;;;;;;14.40;6.85;;;0.70;99.90;;;;;;5087286;28;20035;-81
2022/03/09 02:22:40;;;;;;;14.40;7.80;;;0.70;99.90;;;;;;5104451;28;20047;-82
2022/03/09 02:25:11;;;;;;;14.30;7.72;;;0.70;99.90;;;;;;5087298;28;20500;-82
2022/03/09 02:27:38;;;;;;;15.70;7.68;;;0.70;99.90;;;;;;5087402;28;20445;-82
2022/03/09 02:30:04;;;;;;;13.90;7.00;;;0.60;99.90;;;;;;5111260;28;20047;-82
2022/03/09 02:32:30;;;;;;;13.23;7.43;;;0.60;99.90;;;;;;5103191;28;20050;-81
2022/03/09 02:34:56;;;;;;;15.80;7.47;;;0.60;99.90;;;;;;5103817;28;20036;-82
2022/03/09 02:37:22;;;;;;;14.45;7.18;;;0.50;99.90;;;;;;5103664;28;20055;-82
2022/03/09 02:39:48;;;;;;;14.75;8.50;;;0.50;99.90;;;;;;5111495;22;20517;-82
2022/03/09 02:42:14;;;;;;;13.30;7.07;;;0.60;99.90;;;;;;5120304;28;20040;-81
2022/03/09 02:44:40;;;;;;;16.65;8.35;;;0.50;99.90;;;;;;5120872;28;20440;-81
2022/03/09 02:47:06;;;;;;;16.50;7.53;;;0.50;99.90;;;;;;5103501;28;20039;-81
2022/03/09 02:49:32;;;;;;;14.57;7.68;;;0.50;99.90;;;;;;5103934;28;20478;-81
2022/03/09 02:51:59;;;;;;;11.65;7.18;;;0.40;99.90;;;;;;5127470;22;20047;-81
2022/03/09 02:54:24;;;;;;;17.00;7.85;;;0.40;99.90;;;;;;5121315;28;20068;-81
2022/03/09 02:56:50;;;;;;;15.77;7.88;;;0.30;99.90;;;;;;5127505;22;20063;-81
2022/03/09 02:59:16;;;;;;;13.90;7.75;;;0.30;99.90;;;;;;5120325;28;20061;-82
2022/03/09 03:01:41;;;;;;;17.25;8.02;;;0.30;99.90;;;;;;5103289;28;20036;-82
2022/03/09 03:04:07;;;;;;;14.10;7.47;;;0.30;99.90;;;;;;5112817;28;20066;-81
2022/03/09 03:06:33;;;;;;;16.13;7.43;;;0.30;99.90;;;;;;5112910;28;20039;-81
2022/03/09 03:08:58;;;;;;;15.23;7.75;;;0.20;99.90;;;;;;5104859;28;20036;-82
2022/03/09 03:11:24;;;;;;;13.35;7.53;;;0.20;99.90;;;;;;5122085;28;20036;-82
2022/03/09 03:13:50;;;;;;;13.55;7.07;;;0.20;99.90;;;;;;5121977;28;20035;-82
2022/03/09 03:16:16;;;;;;;13.57;7.57;;;0.20;99.90;;;;;;5105504;28;20114;-82
2022/03/09 03:18:41;;;;;;;17.20;7.60;;;0.40;99.90;;;;;;5104715;28;20104;-82
2022/03/09 03:21:08;;;;;;;15.40;7.32;;;0.10;99.90;;;;;;5121775;28;20044;-82
2022/03/09 03:23:35;;;;;;;17.08;8.18;;;0.10;99.90;;;;;;5121959;28;20035;-82
2022/03/09 03:26:03;;;;;;;13.55;7.70;;;0.10;99.90;;;;;;5104254;28;20167;-82
2022/03/09 03:28:29;;;;;;;15.55;7.22;;;0.10;99.90;;;;;;5121713;28;20040;-82
2022/03/09 03:30:55;;;;;;;18.63;7.40;;;0.10;99.90;;;;;;5121765;28;20051;-82
2022/03/09 03:33:21;;;;;;;15.43;7.68;;;0.10;99.90;;;;;;5123088;28;20032;-82
2022/03/09 03:35:48;;;;;;;15.85;7.28;;;0.10;99.90;;;;;;5104629;28;20374;-82
2022/03/09 03:38:14;;;;;;;15.23;7.20;;;0.10;99.90;;;;;;5124477;28;20099;-82
2022/03/09 03:40:39;;;;;;;13.32;6.93;;;0.60;99.90;;;;;;5104853;28;20481;-82
2022/03/09 03:43:05;;;;;;;13.23;7.30;;;0.10;99.90;;;;;;5122289;28;20035;-82
2022/03/09 03:45:31;;;;;;;13.40;7.40;;;0.10;99.90;;;;;;5121768;28;20104;-82
2022/03/09 03:47:57;;;;;;;17.60;7.68;;;0.00;99.90;;;;;;5105192;28;20088;-82
2022/03/09 03:50:23;;;;;;;14.95;7.68;;;0.00;99.90;;;;;;5122153;28;20043;-82
2022/03/09 03:52:50;;;;;;;15.93;7.70;;;0.00;99.90;;;;;;5105011;28;20086;-82
2022/03/09 03:55:15;;;;;;;13.98;7.18;;;0.00;99.90;;;;;;5104858;28;20542;-82
2022/03/09 03:57:42;;;;;;;13.85;7.43;;;0.00;99.90;;;;;;5104686;28;20094;-82
2022/03/09 04:00:09;;;;;;;20.40;8.38;;;-0.10;99.90;;;;;;5121921;28;20052;-82
2022/03/09 04:02:35;;;;;;;15.02;7.68;;;-0.10;99.90;;;;;;5105267;28;20047;-82
2022/03/09 04:05:02;;;;;;;16.42;8.15;;;-0.10;99.90;;;;;;5120880;28;20039;-82
2022/03/09 04:07:28;;;;;;;14.23;7.78;;;-0.10;99.90;;;;;;5122982;28;20439;-82
2022/03/09 04:09:54;;;;;;;14.40;7.60;;;-0.10;99.90;;;;;;5126221;28;20042;-82
2022/03/09 04:12:20;;;;;;;14.05;7.65;;;-0.10;99.90;;;;;;5125257;28;20100;-82
2022/03/09 04:14:46;;;;;;;17.00;7.90;;;-0.10;99.90;;;;;;5125889;28;20127;-82
2022/03/09 04:17:11;;;;;;;14.75;7.13;;;-0.10;99.90;;;;;;5125630;28;20140;-82
2022/03/09 04:19:37;;;;;;;15.43;7.43;;;-0.20;99.90;;;;;;5126083;28;20501;-82
2022/03/09 04:22:03;;;;;;;15.27;7.40;;;-0.20;99.90;;;;;;5125030;28;20035;-82
2022/03/09 04:24:29;;;;;;;16.30;8.55;;;-0.20;99.90;;;;;;5125215;28;20035;-82
2022/03/09 04:26:54;;;;;;;16.02;7.57;;;-0.20;99.90;;;;;;5126662;28;20394;-82
2022/03/09 04:29:20;;;;;;;15.25;7.55;;;-0.20;99.90;;;;;;5125375;28;20043;-82
2022/03/09 04:31:45;;;;;;;14.88;7.45;;;-0.20;99.90;;;;;;5124973;28;20067;-82
2022/03/09 04:34:11;;;;;;;15.18;7.68;;;0.50;99.90;;;;;;5126566;28;20040;-82
2022/03/09 04:36:37;;;;;;;17.27;8.38;;;-0.30;99.90;;;;;;5126288;28;20028;-82
2022/03/09 04:39:04;;;;;;;13.43;7.78;;;-0.30;99.90;;;;;;5125114;28;20051;-82
2022/03/09 04:41:29;;;;;;;16.20;7.75;;;-0.30;99.90;;;;;;5123979;28;20044;-82
2022/03/09 04:43:55;;;;;;;14.68;7.63;;;-0.30;99.90;;;;;;5109222;28;20099;-82
2022/03/09 04:46:21;;;;;;;13.40;7.50;;;-0.30;99.90;;;;;;5126720;28;20044;-82
2022/03/09 04:48:48;;;;;;;16.63;8.15;;;-0.30;99.90;;;;;;5124008;28;20481;-82
2022/03/09 04:51:15;;;;;;;14.35;7.82;;;0.40;99.90;;;;;;5125824;28;20043;-82
2022/03/09 04:53:40;;;;;;;14.05;7.72;;;-0.40;99.90;;;;;;5126006;28;20035;-82
2022/03/09 04:56:06;;;;;;;17.90;8.50;;;-0.40;99.90;;;;;;5107104;28;20101;-82
2022/03/09 04:58:32;;;;;;;15.52;7.90;;;-0.40;99.90;;;;;;5107535;28;20489;-82
2022/03/09 05:00:58;;;;;;;18.38;8.43;;;-0.40;99.90;;;;;;5126380;28;20126;-82
2022/03/09 05:03:24;;;;;;;17.92;7.97;;;-0.40;99.90;;;;;;5128177;28;20032;-82
2022/03/09 05:05:49;;;;;;;19.05;8.82;;;-0.40;99.90;;;;;;5124345;28;20146;-82
2022/03/09 05:08:15;;;;;;;15.27;8.23;;;-0.40;99.90;;;;;;5108311;28;20064;-82
2022/03/09 05:10:41;;;;;;;17.52;8.32;;;-0.40;99.90;;;;;;5123096;28;20074;-82
2022/03/09 05:13:06;;;;;;;14.93;8.05;;;-0.40;99.90;;;;;;5125152;28;20043;-82
2022/03/09 05:15:32;;;;;;;15.45;8.10;;;-0.40;99.90;;;;;;5125157;28;20489;-82
2022/03/09 05:17:58;;;;;;;17.15;8.73;;;-0.40;99.90;;;;;;5125340;28;20046;-82
2022/03/09 05:20:23;;;;;;;15.70;8.10;;;-0.40;99.90;;;;;;5122563;28;20040;-82
2022/03/09 05:22:50;;;;;;;17.77;8.00;;;-0.50;99.90;;;;;;5124095;28;20040;-82
2022/03/09 05:25:17;;;;;;;17.08;8.38;;;-0.50;99.90;;;;;;5123511;28;20051;-82
2022/03/09 05:27:43;;;;;;;16.70;7.88;;;-0.50;99.90;;;;;;5123863;28;20036;-84
2022/03/09 05:30:09;;;;;;;15.10;8.27;;;-0.50;99.90;;;;;;5125329;28;20126;-82
2022/03/09 05:32:40;;;;;;;15.55;7.50;;;-0.60;99.90;;;;;;5123347;28;20046;-82
2022/03/09 05:35:06;;;;;;;16.33;8.35;;;-0.60;99.90;;;;;;5123665;28;20050;-82
2022/03/09 05:37:40;;;;;;;16.25;7.97;;;-0.60;99.90;;;;;;5124887;28;20084;-82
2022/03/09 05:40:08;;;;;;;16.73;7.90;;;-0.60;99.90;;;;;;5123756;28;20117;-82
2022/03/09 05:42:34;;;;;;;14.20;7.50;;;-0.70;99.90;;;;;;5121542;28;20534;-82
2022/03/09 05:45:00;;;;;;;18.33;7.97;;;-0.60;99.90;;;;;;5122701;28;20095;-82
2022/03/09 05:47:25;;;;;;;17.42;8.18;;;-0.60;99.90;;;;;;5122530;28;20044;-82
2022/03/09 05:49:51;;;;;;;15.90;8.35;;;-0.70;99.90;;;;;;5124600;28;20039;-81
2022/03/09 05:52:16;;;;;;;17.48;7.93;;;-0.60;99.90;;;;;;5117224;28;20040;-82
2022/03/09 05:54:42;;;;;;;17.33;8.25;;;-0.60;99.90;;;;;;5117279;28;20043;-82
2022/03/09 05:57:08;;;;;;;14.48;8.00;;;-0.60;99.90;;;;;;5117171;28;20043;-83
2022/03/09 05:59:33;;;;;;;17.55;7.97;;;-0.60;99.90;;;;;;5118349;28;20043;-83
2022/03/09 06:01:59;;;;;;;21.80;9.40;;;-0.60;99.90;;;;;;5118697;28;20039;-83
2022/03/09 06:04:25;;;;;;;18.42;8.98;;;-0.60;99.90;;;;;;5116254;28;20039;-83
2022/03/09 06:06:50;;;;;;;16.27;8.45;;;-0.60;99.90;;;;;;5116439;28;20069;-83
2022/03/09 06:09:16;;;;;;;16.05;8.38;;;-0.60;99.90;;;;;;5099192;28;20066;-82
2022/03/09 06:11:42;;;;;;;13.77;7.68;;;-0.60;99.90;;;;;;5116375;28;20047;-82
2022/03/09 06:14:08;;;;;;;16.27;8.77;;;-0.60;99.90;;;;;;5118035;27;20035;-83
2022/03/09 06:16:34;;;;;;;16.38;8.30;;;-0.60;99.90;;;;;;5117883;28;20534;-83
2022/03/09 06:19:00;;;;;;;15.63;7.40;;;-0.60;99.90;;;;;;5115540;28;20509;-83
2022/03/09 06:21:25;;;;;;;16.02;8.32;;;-0.60;99.90;;;;;;5115806;28;20040;-83
2022/03/09 06:23:51;;;;;;;16.48;8.13;;;-0.50;99.90;;;;;;5098648;28;20043;-83
2022/03/09 06:26:17;;;;;;;15.63;7.75;;;-0.50;99.90;;;;;;5115803;28;20036;-82
2022/03/09 06:28:42;;;;;;;18.58;8.27;;;-0.50;99.90;;;;;;5115481;28;20046;-82
2022/03/09 06:31:08;;;;;;;16.42;7.85;;;-0.50;99.90;;;;;;5117033;28;20087;-84
2022/03/09 06:33:34;;;;;;;17.00;9.00;;;-0.40;99.90;;;;;;5121315;28;20540;-82
2022/03/09 06:35:59;;;;;;;16.50;8.68;;;-0.40;99.90;;;;;;5130918;28;20099;-82
2022/03/09 06:38:25;;;;;;;15.80;8.13;;;-0.30;99.90;;;;;;5128644;28;20040;-82
2022/03/09 06:40:51;;;;;;;16.55;7.70;;;-0.30;99.90;;;;;;5123675;28;20043;-82
2022/03/09 06:43:17;;;;;;;15.35;7.03;;;-0.30;99.90;;;;;;5123675;28;20085;-82
2022/03/09 06:45:42;;;;;;;16.08;8.48;;;-0.30;99.90;;;;;;5104813;28;20044;-82
2022/03/09 06:48:08;;;;;;;15.80;7.68;;;-0.30;99.90;;;;;;5106196;28;20393;-81
2022/03/09 06:50:34;;;;;;;16.05;7.30;;;-0.30;99.90;;;;;;5123198;28;20070;-82
2022/03/09 06:53:00;;;;;;;16.23;8.13;;;-0.20;99.90;;;;;;5123072;28;20116;-81
2022/03/09 06:55:26;;;;;;;13.27;7.70;;;-0.20;99.90;;;;;;5122057;28;20043;-82
2022/03/09 06:57:52;;;;;;;12.55;7.28;;;-0.10;99.90;;;;;;5105964;28;20069;-82
2022/03/09 07:00:19;;;;;;;12.70;7.38;;;-0.10;99.90;;;;;;5121617;28;20086;-81
2022/03/09 07:02:45;;;;;;;15.25;7.65;;;0.00;99.90;;;;;;5105458;28;20047;-82
2022/03/09 07:05:11;;;;;;;14.43;7.50;;;0.00;99.90;;;;;;5105633;28;20079;-82
2022/03/09 07:07:38;;;;;;;15.73;7.90;;;0.00;99.90;;;;;;5124398;28;20417;-82
2022/03/09 07:10:05;;;;;;;13.98;7.70;;;0.10;99.90;;;;;;5123988;28;20028;-82
2022/03/09 07:12:30;;;;;;;13.73;7.15;;;0.20;99.90;;;;;;5121509;28;20120;-82
2022/03/09 07:14:56;;;;;;;20.65;7.72;;;0.20;99.90;;;;;;5123019;28;20036;-81
2022/03/09 07:17:22;;;;;;;15.40;6.65;;;0.30;99.90;;;;;;5122752;28;20044;-81
2022/03/09 07:19:47;;;;;;;14.05;7.20;;;0.40;99.90;;;;;;5122703;28;20043;-82
2022/03/09 07:22:14;;;;;;;15.32;8.02;;;0.50;99.90;;;;;;5121838;28;20050;-82
2022/03/09 07:24:39;;;;;;;15.52;8.20;;;0.50;99.90;;;;;;5128828;28;20052;-81
2022/03/09 07:27:05;;;;;;;15.43;7.38;;;0.60;99.90;;;;;;5128284;28;20043;-82
2022/03/09 07:29:31;;;;;;;14.60;7.75;;;0.60;99.90;;;;;;5125182;28;20051;-82
2022/03/09 07:31:56;;;;;;;14.60;7.45;;;0.70;99.90;;;;;;5119367;28;20055;-82
2022/03/09 07:34:23;;;;;;;12.95;7.38;;;0.80;99.90;;;;;;5119599;28;20040;-82
2022/03/09 07:36:50;;;;;;;17.00;7.65;;;0.80;99.90;;;;;;5119352;28;20486;-82
2022/03/09 07:39:16;;;;;;;14.93;7.70;;;0.90;99.90;;;;;;5120457;28;20069;-82
2022/03/09 07:41:42;;;;;;;15.77;7.75;;;1.00;99.90;;;;;;5120057;28;20050;-82
2022/03/09 07:44:08;;;;;;;14.02;6.68;;;1.20;99.90;;;;;;5119335;28;20044;-82
2022/03/09 07:46:34;;;;;;;13.02;6.80;;;1.30;99.90;;;;;;5120754;28;20070;-82
2022/03/09 07:49:00;;;;;;;16.77;7.75;;;1.40;99.90;;;;;;5121419;28;20055;-82
2022/03/09 07:51:26;;;;;;;12.65;7.00;;;1.50;99.90;;;;;;5120972;28;20043;-82
2022/03/09 07:53:52;;;;;;;13.70;7.18;;;1.60;99.90;;;;;;5120593;28;20073;-82
2022/03/09 07:56:17;;;;;;;17.30;7.28;;;1.80;99.90;;;;;;5120867;28;20050;-82
2022/03/09 07:58:43;;;;;;;14.23;6.93;;;1.90;99.90;;;;;;5121095;28;20077;-82
2022/03/09 08:01:08;;;;;;;16.70;7.55;;;2.10;99.90;;;;;;5120668;28;20044;-82
2022/03/09 08:03:34;;;;;;;14.35;6.85;;;2.20;99.90;;;;;;5120374;28;20042;-82
2022/03/09 08:06:00;;;;;;;11.93;7.00;;;2.30;99.90;;;;;;5137535;28;20043;-82
2022/03/09 08:08:26;;;;;;;12.70;6.90;;;2.40;99.90;;;;;;5122252;28;20039;-81
2022/03/09 08:10:52;;;;;;;14.75;6.72;;;2.60;99.90;;;;;;5102036;28;20455;-82
2022/03/09 08:13:17;;;;;;;11.05;6.63;;;2.60;99.90;;;;;;5118432;28;20053;-82
2022/03/09 08:15:43;;;;;;;13.15;6.40;;;2.80;99.90;;;;;;5101766;28;20043;-82
2022/03/09 08:18:09;;;;;;;15.95;6.80;;;2.90;99.90;;;;;;5119155;28;20032;-82
2022/03/09 08:20:35;;;;;;;14.77;7.38;;;3.10;99.90;;;;;;5119404;28;20092;-82
2022/03/09 08:23:01;;;;;;;12.73;6.25;;;3.20;99.90;;;;;;5119393;28;20042;-82
2022/03/09 08:25:27;;;;;;;13.68;7.07;;;3.30;99.90;;;;;;5118145;28;20501;-82
2022/03/09 08:27:52;;;;;;;12.00;6.65;;;3.40;99.90;;;;;;5116502;28;20031;-82
2022/03/09 08:30:18;;;;;;;13.98;7.10;;;3.50;99.90;;;;;;5117641;28;20107;-82
2022/03/09 08:32:44;;;;;;;14.07;7.35;;;3.70;99.90;;;;;;5115807;28;20400;-82
2022/03/09 08:35:09;;;;;;;12.00;7.00;;;3.80;99.90;;;;;;5116661;28;20047;-82
2022/03/09 08:37:35;;;;;;;13.02;6.53;;;3.90;99.90;;;;;;5115624;28;20092;-82
2022/03/09 08:40:01;;;;;;;11.13;6.30;;;4.00;99.90;;;;;;5114855;28;20039;-82
2022/03/09 08:42:26;;;;;;;10.55;6.18;;;4.20;99.90;;;;;;5115105;28;20078;-82
2022/03/09 08:44:52;;;;;;;10.48;6.32;;;4.20;99.90;;;;;;5115971;28;20036;-82
2022/03/09 08:47:18;;;;;;;10.55;5.88;;;4.30;99.90;;;;;;5115182;28;20048;-82
2022/03/09 08:49:43;;;;;;;12.95;6.10;;;4.40;99.90;;;;;;5115158;28;20128;-82
2022/03/09 08:52:10;;;;;;;10.60;6.30;;;4.50;99.90;;;;;;5114832;28;20089;-82
2022/03/09 08:54:37;;;;;;;11.43;6.55;;;4.50;99.90;;;;;;5099359;28;20546;-82
2022/03/09 08:57:03;;;;;;;11.73;5.80;;;4.60;99.90;;;;;;5100543;28;20127;-82
2022/03/09 08:59:29;;;;;;;11.43;6.35;;;4.70;99.90;;;;;;5119104;28;20039;-82
2022/03/09 09:01:55;;;;;;;13.20;6.30;;;4.80;99.90;;;;;;5118121;28;20131;-82
2022/03/09 09:04:21;;;;;;;11.10;6.65;;;4.90;99.90;;;;;;5116838;28;20431;-82
2022/03/09 09:06:46;;;;;;;11.57;6.47;;;5.00;99.90;;;;;;5120659;28;20038;-82
2022/03/09 09:09:14;;;;;;;11.05;6.50;;;5.10;99.90;;;;;;5119920;28;20036;-82
2022/03/09 09:11:40;;;;;;;11.10;6.53;;;5.20;99.90;;;;;;5118787;28;20043;-82
2022/03/09 09:14:06;;;;;;;16.17;6.78;;;5.20;99.90;;;;;;5119925;28;20035;-82
2022/03/09 09:16:32;;;;;;;12.18;6.30;;;5.20;99.90;;;;;;5117882;28;20043;-82
2022/03/09 09:18:58;;;;;;;15.00;6.88;;;5.30;99.90;;;;;;5119085;28;20045;-82
2022/03/09 09:21:23;;;;;;;15.32;6.93;;;5.50;99.90;;;;;;5118764;28;20161;-82
2022/03/09 09:23:49;;;;;;;10.52;6.38;;;5.60;99.90;;;;;;5117334;28;20104;-82
2022/03/09 09:26:15;;;;;;;11.68;6.70;;;5.70;99.90;;;;;;5118807;28;20058;-81
2022/03/09 09:28:42;;;;;;;11.23;6.60;;;6.20;99.90;;;;;;5120093;28;20095;-81
2022/03/09 09:31:08;;;;;;;12.63;6.50;;;5.90;99.90;;;;;;5119196;28;20043;-82
2022/03/09 09:33:34;;;;;;;12.45;6.95;;;6.40;99.90;;;;;;5119664;28;20036;-82
2022/03/09 09:36:00;;;;;;;11.18;6.88;;;6.00;99.90;;;;;;5121122;28;20054;-82
2022/03/09 09:38:27;;;;;;;13.05;6.72;;;6.10;99.90;;;;;;5121345;28;20359;-82
2022/03/09 09:40:55;;;;;;;11.93;6.32;;;6.10;99.90;;;;;;5121260;28;20108;-82
2022/03/09 09:43:22;;;;;;;12.93;6.63;;;6.30;99.90;;;;;;5121204;28;20075;-82
2022/03/09 09:45:48;;;;;;;12.13;6.70;;;6.40;99.90;;;;;;5111464;22;20057;-81
2022/03/09 09:48:14;;;;;;;11.52;7.10;;;6.50;99.90;;;;;;5105061;22;20461;-81
2022/03/09 09:50:42;;;;;;;12.68;6.57;;;6.50;99.90;;;;;;5112935;22;20043;-82
2022/03/09 09:53:11;;;;;;;14.38;6.50;;;6.90;99.90;;;;;;5113761;22;20051;-81
2022/03/09 09:55:38;;;;;;;12.50;6.45;;;6.80;99.90;;;;;;5107075;27;20035;-81
2022/03/09 09:58:04;;;;;;;11.68;7.03;;;7.20;99.90;;;;;;5105309;27;20082;-81
2022/03/09 10:00:31;;;;;;;11.27;6.45;;;7.30;99.90;;;;;;5105751;27;20031;-81
2022/03/09 10:02:57;;;;;;;10.80;6.88;;;7.10;99.90;;;;;;5107267;27;20093;-81
2022/03/09 10:05:23;;;;;;;11.32;6.95;;;7.20;99.90;;;;;;5107594;27;20039;-81
2022/03/09 10:08:14;;;;;;;12.70;7.03;;;7.80;99.90;;;;;;5106326;27;20050;-81
2022/03/09 10:10:45;;;;;;;12.50;6.75;;;7.30;98.80;;;;;;5109480;27;20412;-81
2022/03/09 10:13:20;;;;;;;12.10;7.43;;;8.00;99.90;;;;;;5144046;27;20046;-81
2022/03/09 10:15:49;;;;;;;15.55;7.45;;;7.50;99.90;;;;;;5117148;22;20101;-81
2022/03/09 10:18:20;;;;;;;11.77;6.78;;;7.60;99.90;;;;;;5112436;28;20460;-81
2022/03/09 10:20:50;;;;;;;10.55;6.70;;;7.70;98.80;;;;;;5127031;28;20151;-81
2022/03/09 10:23:17;;;;;;;11.63;7.03;;;7.70;99.90;;;;;;5123221;28;20060;-82
2022/03/09 10:25:43;;;;;;;13.32;7.35;;;8.20;99.90;;;;;;5124115;28;20481;-82
2022/03/09 10:28:11;;;;;;;13.65;6.90;;;7.90;99.90;;;;;;5120724;28;20040;-82
2022/03/09 10:30:41;;;;;;;12.88;7.32;;;8.40;99.90;;;;;;5123241;28;20059;-81
2022/03/09 10:33:12;;;;;;;11.15;6.63;;;8.20;98.90;;;;;;5124111;28;20054;-82
2022/03/09 10:35:43;;;;;;;10.43;6.60;;;8.30;98.30;;;;;;5124601;28;20046;-82
2022/03/09 10:38:15;;;;;;;13.00;6.90;;;8.80;98.60;;;;;;5104723;28;20071;-81
2022/03/09 10:40:46;;;;;;;15.93;7.82;;;8.50;98.50;;;;;;5104388;28;20104;-82
2022/03/09 10:43:16;;;;;;;12.55;7.55;;;8.50;97.20;;;;;;5122934;28;20043;-82
2022/03/09 10:46:00;;;;;;;12.60;7.07;;;8.60;97.70;;;;;;5105081;28;20093;-82
2022/03/09 10:48:49;;;;;;;12.43;7.40;;;8.70;93.70;;;;;;5121332;28;20054;-83
2022/03/09 10:51:33;;;;;;;10.45;6.93;;;8.80;97.40;;;;;;5121286;28;20072;-83
2022/03/09 10:54:11;;;;;;;12.85;7.22;;;9.00;92.90;;;;;;5103914;28;20039;-83
2022/03/09 10:56:38;;;;;;;10.93;6.78;;;9.50;92.80;;;;;;5120092;28;20104;-83
2022/03/09 10:59:24;;;;;;;13.02;7.68;;;9.30;95.80;;;;;;5121537;28;20043;-83
2022/03/09 11:02:23;;;;;;;13.02;6.88;;;9.40;94.00;;;;;;5126443;28;20036;-83
2022/03/09 11:05:09;;;;;;;11.02;6.85;;;10.00;91.20;;;;;;5064939;28;20049;-83
2022/03/09 11:07:36;;;;;;;10.40;6.53;;;9.90;91.50;;;;;;5048342;28;20079;-83
2022/03/09 11:10:03;;;;;;;11.50;6.63;;;10.00;93.70;;;;;;5048164;28;20049;-83
2022/03/09 11:12:29;;;;;;;11.13;6.65;;;10.00;93.00;;;;;;5047601;28;20053;-83
2022/03/09 11:14:55;;;;;;;10.65;6.80;;;10.20;94.30;;;;;;5042666;28;20407;-83
2022/03/09 11:17:24;;;;;;;13.95;7.38;;;10.30;92.50;;;;;;5041683;28;20140;-83
2022/03/09 11:19:50;;;;;;;11.38;6.57;;;10.30;91.30;;;;;;5041302;28;20500;-83
2022/03/09 11:22:16;;;;;;;10.77;6.70;;;10.40;92.10;;;;;;5041387;28;20049;-83
2022/03/09 11:24:42;;;;;;;12.52;7.15;;;11.00;91.70;;;;;;5025035;28;20041;-83
2022/03/09 11:27:10;;;;;;;10.25;6.70;;;10.90;90.90;;;;;;5043148;28;20179;-83
2022/03/09 11:29:37;;;;;;;10.95;6.95;;;11.20;91.00;;;;;;5041919;28;20048;-83
2022/03/09 11:32:08;;;;;;;12.98;6.90;;;11.30;90.00;;;;;;5058836;28;20045;-83
2022/03/09 11:34:37;;;;;;;11.40;7.10;;;10.80;83.60;;;;;;5043269;28;20052;-83
2022/03/09 11:37:08;;;;;;;12.60;6.88;;;10.80;81.40;;;;;;5042083;28;20064;-83
2022/03/09 11:39:37;;;;;;;11.55;7.53;;;10.90;79.50;;;;;;5037326;28;20390;-83
2022/03/09 11:42:21;;;;;;;11.88;7.20;;;11.00;83.10;;;;;;5135702;22;20051;-83
2022/03/09 11:44:48;;;;;;;13.82;7.38;;;11.20;78.20;;;;;;5102529;28;20131;-83
2022/03/09 11:47:15;;;;;;;10.95;6.85;;;11.40;82.50;;;;;;5102179;28;20046;-83
2022/03/09 11:49:49;;;;;;;11.50;7.45;;;12.00;81.40;;;;;;5102406;28;20032;-83
2022/03/09 11:52:22;;;;;;;13.15;8.00;;;11.40;77.30;;;;;;5110265;22;20051;-83
2022/03/09 11:54:55;;;;;;;12.15;7.68;;;11.40;75.70;;;;;;5119755;28;20051;-83
2022/03/09 11:57:23;;;;;;;13.32;7.80;;;12.00;79.20;;;;;;5103001;28;20047;-83
2022/03/09 12:00:17;;;;;;;14.57;8.07;;;11.60;76.80;;;;;;5102300;28;20088;-83
2022/03/09 12:02:56;;;;;;;12.07;7.30;;;11.80;72.00;;;;;;5120171;28;20094;-83
2022/03/09 12:05:27;;;;;;;14.20;7.70;;;12.10;70.80;;;;;;5103798;28;20043;-83
2022/03/09 12:08:14;;;;;;;13.18;7.40;;;11.90;71.80;;;;;;5113677;22;20051;-83
2022/03/09 12:10:39;;;;;;;12.27;7.75;;;12.00;73.90;;;;;;5102391;28;20054;-83
2022/03/09 12:13:10;;;;;;;11.80;7.88;;;12.10;74.30;;;;;;5102193;22;20035;-83
2022/03/09 12:15:59;;;;;;;12.93;8.13;;;12.20;70.80;;;;;;5102491;28;20474;-83
2022/03/09 12:18:42;;;;;;;11.93;7.43;;;12.30;66.50;;;;;;5093862;28;20142;-83
2022/03/09 12:21:14;;;;;;;13.55;8.05;;;12.50;70.00;;;;;;5103437;28;20068;-83
2022/03/09 12:24:13;;;;;;;11.52;7.68;;;12.60;71.40;;;;;;5086271;28;20059;-83
2022/03/09 12:26:43;;;;;;;12.15;7.75;;;12.80;66.70;;;;;;5045368;28;20062;-83
2022/03/09 12:29:37;;;;;;;11.85;7.85;;;13.00;71.50;;;;;;5061700;28;20542;-83
2022/03/09 12:32:02;;;;;;;11.38;7.30;;;13.20;67.40;;;;;;5046484;28;20098;-83
2022/03/09 12:34:30;;;;;;;12.88;8.48;;;13.50;70.10;;;;;;5049142;28;20481;-83
2022/03/09 12:36:57;;;;;;;13.52;7.88;;;14.00;69.80;;;;;;5071964;22;20037;-81
2022/03/09 12:39:24;;;;;;;12.45;7.90;;;13.70;67.30;;;;;;5122995;22;20051;-81
2022/03/09 12:41:56;;;;;;;11.30;7.22;;;13.90;67.10;;;;;;5120365;22;20114;-81
2022/03/09 12:44:24;;;;;;;11.05;7.32;;;14.10;65.30;;;;;;5113957;22;20044;-81
2022/03/09 12:46:52;;;;;;;13.35;7.50;;;14.20;66.80;;;;;;5119485;22;20067;-81
2022/03/09 12:49:36;;;;;;;12.52;7.63;;;14.50;65.00;;;;;;5113704;22;20055;-81